Pearland, TX

6:58 PM CDT on August 22, 2014 (GMT -0500)
Lawrence Place | Change Station
CLOSE
Current Station
Personal Weather Station
Location: Pearland, TX
Elevation: 59 ft
Nearby Weather Stations
Active Advisory: Heat Advisory Active Notice: Record Report

Elev 59 ft 29.53 °N, 95.31 °W | Updated 3 minutes ago

Clear
Clear
88.6 °F
Feels Like 101 °F
N
0.0
Wind Variable Wind from South
Gusts 0.0 mph

Today
High -- | Low -- °F
--% Chance of Precip.
Yesterday
High -- | Low -- °F
Precip. -- in
6:53 AM 7:54 PM
Waning Crescent, 6% visible
Pressure 30.02 in
Visibility 10.0 miles
Clouds Clear
Heat Index 101 °F
Dew Point 77 °F
Humidity 69%
Rainfall 0.00 in
Snow Depth Not available.
UV 1 out of 12
Pollen 5.90 out of 12
Ozone Moderate
PM2.5 Moderate
Flu Activity Not available.
METAR KLVJ 222353Z AUTO 17010G19KT 10SM CLR 32/23 A3002 RMK AO2 SLP165 T03170228 10356 20317 55004

More Conditions Fewer Conditions

Pressure 30.02 in
Visibility 10.0 miles
Clouds Clear
Heat Index 101 °F
Dew Point 77 °F
Humidity 69%
Rainfall 0.00 in
Snow Depth Not available.
UV 1 out of 12
Pollen 5.90 out of 12
Ozone Moderate
PM2.5 Moderate
Flu Activity Not available.
METAR KLVJ 222353Z AUTO 17010G19KT 10SM CLR 32/23 A3002 RMK AO2 SLP165 T03170228 10356 20317 55004

More Conditions Fewer Conditions

10-Day Weather Forecast

Almanac

Astronomy

Aug. 22, 2014 Rise Set
Actual Time 6:53 AM CDT 7:54 PM CDT
Civil Twilight 6:28 AM CDT 8:19 PM CDT
Nautical Twilight 5:59 AM CDT 8:48 PM CDT
Astronomical Twilight 5:29 AM CDT 9:18 PM CDT
Moon 4:22 AM CDT 5:59 PM CDT
Length of Visible Light 13h 50m
Length of Day
13h 01m
Tomorrow will be 1m 37s shorter.
Waning Crescent, 6% of the Moon is Illuminated
Today
Waning Crescent
Aug 25
New
Sep 2
First Quarter
Sep 8
Full
Sep 15
Last Quarter

Today's Extremes

State Highs State Lows

Community

WunderPhotos

Upload Photos

1,746,310 photos uploaded!

WunderBlogs® & News

By Dr. Jeff Masters
Director of Meteorology, Weather Underground
By Kari Strenfel
Meteorologist, Weather Underground
By Christopher C. Burt
Weather Historian, Weather Underground
August 22, 2014
August 22, 2014
August 22, 2014

Nearby

Air Quality

  Air Quality AQ Index Pollutant
Yesterday Moderate
PM2.5
Yesterday Good
OZONE
Current Moderate
PM2.5
Current Moderate
OZONE
Friday Good
PM10
Friday Good
OZONE
Saturday Good
PM10
Saturday Good
OZONE
Sunday Moderate
OZONE
Sunday Good
PM10
Monday Moderate
OZONE
Monday Good
PM10
Tuesday Moderate
OZONE
Tuesday Good
PM10

Snow Depth

Station Depth Elevation
No new snow has been reported.

Earthquake Activity

City Distance Mag. Time & Date
No recent earthquake activity has been reported nearby.
Minimum magnitude displayed is 2.5.

Coastal Water Temperatures

Place Temperature
Eagle Point, TX 90.0 °F
USCG Freeport, TX 90.0 °F
Galveston Pier TX 87.1 °F
Galveston Bay (North Jetty), TX 89.1 °F
Rollover Pass, TX 87.1 °F

Nearby Weather Stations